createdAt,value
2019-03-08T00:02:09.602Z,66.81
2019-03-08T00:04:43.522Z,66.71
2019-03-08T00:07:14.898Z,66.72
2019-03-08T00:09:45.991Z,66.62
2019-03-08T00:12:17.012Z,66.45
2019-03-08T00:14:48.283Z,66.42
2019-03-08T00:17:19.252Z,66.42
2019-03-08T00:19:50.070Z,66.29
2019-03-08T00:22:21.160Z,66.10
2019-03-08T00:24:52.640Z,66.11
2019-03-08T00:27:23.969Z,65.94
2019-03-08T00:29:55.032Z,65.81
2019-03-08T00:32:29.352Z,65.97
2019-03-08T00:35:00.977Z,65.88
2019-03-08T00:37:31.866Z,65.84
2019-03-08T00:40:02.854Z,65.90
2019-03-08T00:42:33.439Z,65.97
2019-03-08T00:45:06.041Z,66.12
2019-03-08T00:47:37.497Z,65.99
2019-03-08T00:50:09.476Z,66.18
2019-03-08T00:52:40.298Z,66.25
2019-03-08T00:55:12.986Z,66.66
2019-03-08T00:57:44.497Z,66.80
2019-03-08T01:00:18.984Z,67.10
2019-03-08T01:02:50.157Z,67.11
2019-03-08T01:05:21.875Z,67.23
2019-03-08T01:07:53.348Z,67.30
2019-03-08T01:10:26.026Z,67.54
2019-03-08T01:12:56.920Z,67.56
2019-03-08T01:15:28.225Z,67.91
2019-03-08T01:17:59.055Z,67.95
2019-03-08T01:20:31.756Z,68.08
2019-03-08T01:23:03.028Z,68.33
2019-03-08T01:25:34.103Z,68.51
2019-03-08T01:28:08.412Z,68.57
2019-03-08T01:30:40.410Z,68.75
2019-03-08T01:33:11.872Z,68.88
2019-03-08T01:35:43.665Z,68.99
2019-03-08T01:38:14.588Z,69.19
2019-03-08T01:40:45.373Z,68.91
2019-03-08T01:43:16.266Z,68.74
2019-03-08T01:45:47.067Z,68.70
2019-03-08T01:48:18.388Z,68.12
2019-03-08T01:50:49.223Z,68.21
2019-03-08T01:53:20.519Z,67.99
2019-03-08T01:55:51.308Z,67.80
2019-03-08T01:58:22.409Z,67.67
2019-03-08T02:00:53.320Z,67.62
2019-03-08T02:03:24.533Z,67.36
2019-03-08T02:05:55.742Z,67.36
2019-03-08T02:08:26.647Z,67.12
2019-03-08T02:10:58.055Z,67.18
2019-03-08T02:13:28.592Z,66.86
2019-03-08T02:15:59.700Z,66.84
2019-03-08T02:18:30.660Z,66.80
2019-03-08T02:21:06.693Z,66.61
2019-03-08T02:23:34.398Z,66.70
2019-03-08T02:26:05.453Z,66.58
2019-03-08T02:28:36.263Z,66.65
2019-03-08T02:31:07.501Z,66.13
2019-03-08T02:33:38.786Z,66.25
2019-03-08T02:36:10.460Z,66.42
2019-03-08T02:38:41.515Z,66.11
2019-03-08T02:41:12.598Z,66.03
2019-03-08T02:43:43.477Z,66.15
2019-03-08T02:46:14.296Z,65.91
2019-03-08T02:48:46.103Z,65.35
2019-03-08T02:51:18.181Z,65.35
2019-03-08T02:53:48.936Z,65.09
2019-03-08T02:56:20.089Z,65.22
2019-03-08T02:58:51.228Z,65.13
2019-03-08T03:01:22.379Z,65.26
2019-03-08T03:03:53.130Z,65.43
2019-03-08T03:06:24.561Z,65.41
2019-03-08T03:08:55.489Z,65.68
2019-03-08T03:11:26.158Z,65.87
2019-03-08T03:13:57.685Z,65.88
2019-03-08T03:16:28.602Z,65.89
2019-03-08T03:18:59.721Z,66.12
2019-03-08T03:21:31.038Z,66.20
2019-03-08T03:24:02.086Z,66.34
2019-03-08T03:26:33.100Z,66.29
2019-03-08T03:29:03.898Z,66.54
2019-03-08T03:31:35.435Z,66.33
2019-03-08T03:34:07.981Z,66.62
2019-03-08T03:36:39.540Z,66.60
2019-03-08T03:39:10.663Z,66.60
2019-03-08T03:41:41.397Z,66.84
2019-03-08T03:44:12.789Z,67.04
2019-03-08T03:46:44.522Z,67.00
2019-03-08T03:49:15.552Z,67.18
2019-03-08T03:51:46.380Z,67.11
2019-03-08T03:54:17.435Z,67.17
2019-03-08T03:56:48.068Z,67.29
2019-03-08T03:59:18.923Z,67.31
2019-03-08T04:01:50.926Z,67.15
2019-03-08T04:04:22.088Z,67.07
2019-03-08T04:06:52.877Z,66.95
2019-03-08T04:09:23.503Z,66.83
2019-03-08T04:11:54.530Z,66.81
2019-03-08T04:14:25.648Z,66.90
2019-03-08T04:16:56.629Z,66.68
2019-03-08T04:19:27.790Z,66.66
2019-03-08T04:21:58.835Z,66.71
2019-03-08T04:24:30.112Z,66.71
2019-03-08T04:27:01.187Z,66.64
2019-03-08T04:29:32.018Z,66.64
2019-03-08T04:32:02.858Z,66.72
2019-03-08T04:34:33.682Z,66.90
2019-03-08T04:37:05.459Z,66.90
2019-03-08T04:39:36.445Z,66.97
2019-03-08T04:42:07.715Z,66.92
2019-03-08T04:44:38.381Z,66.93
2019-03-08T04:47:09.200Z,66.88
2019-03-08T04:49:40.410Z,66.67
2019-03-08T04:52:11.997Z,66.69
2019-03-08T04:54:43.371Z,66.81
2019-03-08T04:57:14.046Z,66.52
2019-03-08T04:59:44.873Z,66.65
2019-03-08T05:02:15.963Z,66.82
2019-03-08T05:04:46.572Z,66.82
2019-03-08T05:07:17.159Z,67.07
2019-03-08T05:09:48.156Z,67.03
2019-03-08T05:12:19.152Z,67.18
2019-03-08T05:14:50.127Z,67.28
2019-03-08T05:17:21.119Z,67.51
2019-03-08T05:19:51.728Z,67.67
2019-03-08T05:22:23.216Z,67.69
2019-03-08T05:24:54.453Z,67.82
2019-03-08T05:27:25.266Z,67.79
2019-03-08T05:29:56.331Z,67.80
2019-03-08T05:32:28.017Z,68.08
2019-03-08T05:34:58.997Z,68.07
2019-03-08T05:37:30.586Z,67.98
2019-03-08T05:40:01.519Z,68.14
2019-03-08T05:42:32.956Z,67.85
2019-03-08T05:45:04.700Z,67.69
2019-03-08T05:47:35.651Z,67.34
2019-03-08T05:50:08.479Z,67.59
2019-03-08T05:52:39.775Z,67.29
2019-03-08T05:55:11.819Z,67.29
2019-03-08T05:57:43.180Z,67.31
2019-03-08T06:00:17.498Z,67.22
2019-03-08T06:02:48.218Z,67.34
2019-03-08T06:05:19.287Z,66.84
2019-03-08T06:07:50.148Z,67.07
2019-03-08T06:10:24.385Z,66.99
2019-03-08T06:12:55.097Z,66.30
2019-03-08T06:15:25.809Z,66.26
2019-03-08T06:17:56.869Z,66.14
2019-03-08T06:20:28.184Z,65.67
2019-03-08T06:22:59.219Z,65.29
2019-03-08T06:25:30.517Z,64.89
2019-03-08T06:28:01.502Z,64.06
2019-03-08T06:30:32.228Z,63.45
2019-03-08T06:33:03.359Z,63.17
2019-03-08T06:35:34.315Z,62.71
2019-03-08T06:38:06.581Z,62.46
2019-03-08T06:40:37.662Z,62.23
2019-03-08T06:43:08.404Z,61.89
2019-03-08T06:45:39.598Z,61.19
2019-03-08T06:48:10.633Z,60.83
2019-03-08T06:50:41.803Z,60.84
2019-03-08T06:53:12.762Z,60.44
2019-03-08T06:55:43.783Z,60.50
2019-03-08T06:58:16.265Z,59.61
2019-03-08T07:00:46.858Z,59.50
2019-03-08T07:03:17.858Z,59.19
2019-03-08T07:05:48.778Z,59.35
2019-03-08T07:08:19.964Z,59.41
2019-03-08T07:10:51.163Z,58.98
2019-03-08T07:13:22.667Z,58.70
2019-03-08T07:15:53.363Z,58.38
2019-03-08T07:18:24.335Z,58.65
2019-03-08T07:20:56.788Z,58.46
2019-03-08T07:23:29.669Z,58.05
2019-03-08T07:26:02.243Z,58.08
2019-03-08T07:28:34.739Z,57.67
2019-03-08T07:31:05.253Z,58.06
2019-03-08T07:33:38.252Z,57.15
2019-03-08T07:36:10.557Z,57.01
2019-03-08T07:38:43.450Z,56.94
2019-03-08T07:41:15.772Z,56.69
2019-03-08T07:43:49.810Z,56.34
2019-03-08T07:46:23.295Z,56.10
2019-03-08T07:48:55.956Z,55.71
2019-03-08T07:51:28.438Z,55.25
2019-03-08T07:54:01.099Z,54.40
2019-03-08T07:56:31.892Z,54.58
2019-03-08T07:59:04.532Z,54.29
2019-03-08T08:01:37.251Z,54.57
2019-03-08T08:04:09.812Z,54.30
2019-03-08T08:06:42.691Z,53.98
2019-03-08T08:09:15.172Z,54.02
2019-03-08T08:11:47.610Z,53.52
2019-03-08T08:14:20.945Z,53.47
2019-03-08T08:16:53.346Z,53.81
2019-03-08T08:19:25.707Z,53.90
2019-03-08T08:21:56.106Z,52.51
2019-03-08T08:24:28.546Z,51.92
2019-03-08T08:27:00.866Z,52.06
2019-03-08T08:29:35.245Z,51.78
2019-03-08T08:32:08.747Z,51.92
2019-03-08T08:34:41.296Z,52.06
2019-03-08T08:37:14.789Z,51.74
2019-03-08T08:39:48.148Z,51.65
2019-03-08T08:42:19.749Z,51.37
2019-03-08T08:44:53.276Z,51.62
2019-03-08T08:47:26.124Z,51.87
2019-03-08T08:49:58.729Z,51.42
2019-03-08T08:52:32.303Z,51.27
2019-03-08T08:55:04.879Z,51.85
2019-03-08T08:57:37.508Z,51.59
2019-03-08T09:00:13.390Z,51.32
2019-03-08T09:02:46.127Z,51.37
2019-03-08T09:05:18.986Z,51.14
2019-03-08T09:07:51.558Z,51.44
2019-03-08T09:10:24.787Z,50.95
2019-03-08T09:12:57.320Z,51.17
2019-03-08T09:15:30.898Z,51.15
2019-03-08T09:18:03.996Z,51.43
2019-03-08T09:20:36.690Z,51.42
2019-03-08T09:23:09.659Z,51.22
2019-03-08T09:25:42.942Z,51.50
2019-03-08T09:28:15.946Z,51.13
2019-03-08T09:30:48.972Z,51.11
2019-03-08T09:33:22.689Z,51.54
2019-03-08T09:35:56.126Z,50.99
2019-03-08T09:38:28.918Z,50.62
2019-03-08T09:41:01.618Z,51.02
2019-03-08T09:43:34.492Z,50.75
2019-03-08T09:46:07.268Z,50.04
2019-03-08T09:48:48.322Z,50.01
2019-03-08T09:51:14.433Z,49.73
2019-03-08T09:53:47.792Z,50.02
2019-03-08T09:56:20.834Z,49.52
2019-03-08T09:58:53.662Z,50.00
2019-03-08T10:01:26.557Z,49.70
2019-03-08T10:03:59.198Z,49.56
2019-03-08T10:06:30.391Z,48.80
2019-03-08T10:09:03.335Z,48.31
2019-03-08T10:11:37.857Z,48.56
2019-03-08T10:14:10.499Z,48.57
2019-03-08T10:16:43.803Z,48.07
2019-03-08T10:19:16.619Z,47.83
2019-03-08T10:21:49.241Z,47.81
2019-03-08T10:24:21.873Z,48.00
2019-03-08T10:26:54.668Z,47.88
2019-03-08T10:29:27.389Z,47.71
2019-03-08T10:32:00.090Z,47.85
2019-03-08T10:34:33.467Z,48.31
2019-03-08T10:37:07.068Z,48.83
2019-03-08T10:39:39.670Z,48.86
2019-03-08T10:42:12.368Z,49.21
2019-03-08T10:44:45.444Z,49.10
2019-03-08T10:47:18.498Z,49.74
2019-03-08T10:49:55.084Z,50.01
2019-03-08T10:52:25.681Z,50.32
2019-03-08T10:54:58.779Z,50.22
2019-03-08T10:57:32.079Z,50.13
2019-03-08T11:00:05.447Z,50.41
2019-03-08T11:02:39.023Z,50.38
2019-03-08T11:05:12.003Z,50.71
2019-03-08T11:07:42.872Z,50.36
2019-03-08T11:10:15.771Z,50.28
2019-03-08T11:12:48.977Z,50.46
2019-03-08T11:15:24.683Z,50.77
2019-03-08T11:17:56.521Z,50.10
2019-03-08T11:20:29.347Z,50.06
2019-03-08T11:23:01.881Z,50.17
2019-03-08T11:25:35.376Z,49.86
2019-03-08T11:28:08.159Z,49.84
2019-03-08T11:30:40.903Z,50.00
2019-03-08T11:33:13.493Z,49.90
2019-03-08T11:35:46.729Z,50.23
2019-03-08T11:38:19.712Z,50.41
2019-03-08T11:40:52.543Z,49.47
2019-03-08T11:43:25.141Z,49.81
2019-03-08T11:45:57.454Z,49.56
2019-03-08T11:48:29.707Z,49.69
2019-03-08T11:51:02.619Z,49.36
2019-03-08T11:53:35.635Z,49.78
2019-03-08T11:56:08.326Z,49.81
2019-03-08T11:58:41.588Z,49.55
2019-03-08T12:01:14.427Z,49.75
2019-03-08T12:03:47.194Z,48.71
2019-03-08T12:06:20.174Z,48.49
2019-03-08T12:08:52.918Z,48.43
2019-03-08T12:11:23.964Z,48.54
2019-03-08T12:13:57.581Z,48.94
2019-03-08T12:16:30.299Z,49.15
2019-03-08T12:19:03.162Z,48.94
2019-03-08T12:21:36.424Z,48.98
2019-03-08T12:24:08.704Z,48.83
2019-03-08T12:26:41.680Z,49.33
2019-03-08T12:29:12.640Z,49.15
2019-03-08T12:31:45.276Z,49.38
2019-03-08T12:34:18.157Z,49.46
2019-03-08T12:36:51.235Z,49.52
2019-03-08T12:39:23.989Z,49.84
2019-03-08T12:42:13.748Z,50.36
2019-03-08T13:06:07.644Z,66.61
2019-03-08T13:08:41.797Z,67.07
2019-03-08T13:11:12.581Z,66.36
2019-03-08T13:13:43.050Z,65.74
2019-03-08T13:16:13.941Z,64.94
2019-03-08T13:18:44.467Z,64.21
2019-03-08T13:21:16.123Z,64.01
2019-03-08T13:23:46.799Z,64.74
2019-03-08T13:26:19.116Z,63.60
2019-03-08T13:28:50.476Z,64.27
2019-03-08T13:31:22.215Z,64.07
2019-03-08T13:33:53.356Z,63.30
2019-03-08T13:36:24.461Z,63.29
2019-03-08T13:38:55.698Z,63.08
2019-03-08T13:41:27.327Z,63.51
2019-03-08T13:43:58.466Z,63.68
2019-03-08T13:46:29.564Z,63.95
2019-03-08T13:49:00.544Z,65.71
2019-03-08T13:51:31.673Z,65.43
2019-03-08T13:54:02.736Z,67.80
2019-03-08T13:56:33.933Z,71.66
2019-03-08T13:59:05.222Z,76.42
2019-03-08T14:01:36.393Z,78.57
2019-03-08T14:04:08.000Z,79.21
2019-03-08T14:06:40.686Z,79.61
2019-03-08T14:09:12.292Z,80.10
2019-03-08T14:11:44.113Z,79.19
2019-03-08T14:14:15.517Z,78.23
2019-03-08T14:16:47.685Z,77.01
2019-03-08T14:19:19.080Z,77.16
2019-03-08T14:21:50.989Z,76.70
2019-03-08T14:24:22.658Z,74.55
2019-03-08T14:26:53.327Z,73.89
2019-03-08T14:29:24.707Z,72.87
2019-03-08T14:31:57.338Z,72.41
2019-03-08T14:34:28.515Z,71.46
2019-03-08T14:36:59.763Z,72.09
2019-03-08T14:39:32.864Z,71.89
2019-03-08T14:42:05.600Z,71.71
2019-03-08T14:44:38.235Z,71.10
2019-03-08T14:47:10.829Z,75.06
2019-03-08T14:49:42.109Z,78.67
2019-03-08T14:52:14.430Z,80.44
2019-03-08T14:54:46.404Z,82.09
2019-03-08T14:57:26.865Z,83.10
2019-03-08T14:59:53.295Z,84.00
2019-03-08T15:02:25.316Z,83.46
2019-03-08T15:04:56.991Z,84.17
2019-03-08T15:07:30.679Z,85.27
2019-03-08T15:10:02.439Z,84.39
2019-03-08T15:12:37.581Z,83.30
2019-03-08T15:15:11.414Z,83.24
2019-03-08T15:17:42.698Z,81.40
2019-03-08T15:20:16.251Z,81.10
2019-03-08T15:22:48.164Z,81.28
2019-03-08T15:25:19.766Z,79.74
2019-03-08T15:27:51.024Z,80.42
2019-03-08T15:30:23.109Z,78.83
2019-03-08T15:32:57.161Z,76.94
2019-03-08T15:35:28.344Z,76.03
2019-03-08T15:37:59.384Z,74.72
2019-03-08T15:40:33.213Z,75.23
2019-03-08T15:43:02.636Z,72.95
2019-03-08T15:45:35.622Z,73.51
2019-03-08T15:48:06.845Z,72.82
2019-03-08T15:50:37.593Z,72.12
2019-03-08T15:53:08.387Z,71.92
2019-03-08T15:55:39.661Z,70.26
2019-03-08T15:58:10.893Z,71.19
2019-03-08T16:00:42.327Z,71.83
2019-03-08T16:03:14.158Z,70.10
2019-03-08T16:05:46.509Z,70.30
2019-03-08T16:08:17.896Z,69.84
2019-03-08T16:10:49.627Z,68.14
2019-03-08T16:13:22.349Z,67.20
2019-03-08T16:15:53.822Z,67.38
2019-03-08T16:18:25.434Z,66.35
2019-03-08T16:20:56.828Z,67.11
2019-03-08T16:23:28.428Z,68.18
2019-03-08T16:25:59.784Z,68.30
2019-03-08T16:28:31.669Z,69.44
2019-03-08T16:31:04.310Z,68.60
2019-03-08T16:33:36.956Z,70.02
2019-03-08T16:36:09.850Z,68.13
2019-03-08T16:38:43.028Z,67.72
2019-03-08T16:41:15.699Z,68.28
2019-03-08T16:43:48.072Z,68.16
2019-03-08T16:46:20.229Z,66.48
2019-03-08T16:48:52.739Z,67.39
2019-03-08T16:51:25.511Z,67.19
2019-03-08T16:53:58.487Z,67.46
2019-03-08T16:56:32.055Z,65.72
2019-03-08T16:59:05.411Z,65.42
2019-03-08T17:01:38.389Z,64.14
2019-03-08T17:04:11.210Z,62.89
2019-03-08T17:06:44.851Z,62.80
2019-03-08T17:09:17.305Z,63.51
2019-03-08T17:11:50.016Z,63.62
2019-03-08T17:14:22.351Z,62.84
2019-03-08T17:16:55.053Z,63.29
2019-03-08T17:19:28.979Z,63.06
2019-03-08T17:22:01.971Z,62.96
2019-03-08T17:24:35.651Z,63.27
2019-03-08T17:27:07.528Z,62.88
2019-03-08T17:29:39.930Z,63.15
2019-03-08T17:32:12.502Z,64.25
2019-03-08T17:34:45.707Z,63.50
2019-03-08T17:37:18.861Z,64.18
2019-03-08T17:39:51.548Z,64.75
2019-03-08T17:42:24.681Z,64.60
2019-03-08T17:44:57.275Z,65.32
2019-03-08T17:47:30.044Z,64.50
2019-03-08T17:50:02.460Z,64.80
2019-03-08T17:52:34.937Z,64.99
2019-03-08T17:55:08.100Z,65.58
2019-03-08T17:57:40.869Z,65.65
2019-03-08T18:00:16.414Z,65.56
2019-03-08T18:02:49.445Z,66.00
2019-03-08T18:05:21.979Z,66.20
2019-03-08T18:07:52.789Z,65.17
2019-03-08T18:10:28.926Z,65.81
2019-03-08T18:13:03.699Z,65.51
2019-03-08T18:15:36.298Z,66.12
2019-03-08T18:18:08.859Z,65.92
2019-03-08T18:20:39.579Z,66.41
2019-03-08T18:23:12.218Z,66.55
2019-03-08T18:25:44.619Z,66.75
2019-03-08T18:28:16.906Z,66.70
2019-03-08T18:30:50.739Z,66.83
2019-03-08T18:33:23.147Z,67.08
2019-03-08T18:36:06.618Z,67.40
2019-03-08T18:38:53.818Z,67.71
2019-03-08T18:41:44.155Z,67.34
2019-03-08T18:44:41.979Z,67.95
2019-03-08T18:47:26.339Z,68.43
2019-03-08T18:50:14.939Z,68.58
2019-03-08T18:52:57.738Z,68.44
2019-03-08T18:55:34.180Z,68.48
2019-03-08T18:58:07.623Z,68.37
2019-03-08T19:00:40.620Z,68.33
2019-03-08T19:03:14.433Z,69.01
2019-03-08T19:05:47.698Z,68.22
2019-03-08T19:08:25.858Z,68.63
2019-03-08T19:11:04.944Z,68.31
2019-03-08T19:13:38.873Z,68.56
2019-03-08T19:16:11.861Z,69.19
2019-03-08T19:18:49.043Z,68.96
2019-03-08T19:21:33.737Z,69.30
2019-03-08T19:24:13.808Z,68.93
2019-03-08T19:26:49.104Z,69.13
2019-03-08T19:29:23.992Z,69.67
2019-03-08T19:32:01.616Z,69.66
2019-03-08T19:34:41.245Z,70.38
2019-03-08T19:37:19.411Z,70.36
2019-03-08T19:40:04.842Z,70.00
2019-03-08T19:42:52.932Z,70.18
2019-03-08T19:45:30.986Z,70.44
2019-03-08T19:48:27.262Z,70.48
2019-03-08T19:51:03.639Z,70.72
2019-03-08T19:53:42.979Z,70.71
2019-03-08T19:56:26.557Z,71.03
2019-03-08T19:59:05.505Z,71.22
2019-03-08T20:01:46.772Z,71.17
2019-03-08T20:04:24.841Z,71.34
2019-03-08T20:06:58.321Z,71.75
2019-03-08T20:09:33.600Z,71.79
2019-03-08T20:12:07.494Z,72.12
2019-03-08T20:14:40.275Z,71.90
2019-03-08T20:17:14.652Z,72.40
2019-03-08T20:19:47.707Z,72.25
2019-03-08T20:22:23.657Z,72.21
2019-03-08T20:24:58.088Z,72.32
2019-03-08T20:27:33.071Z,72.44
2019-03-08T20:30:10.089Z,72.50
2019-03-08T20:32:46.461Z,72.42
2019-03-08T20:35:20.521Z,72.56
2019-03-08T20:37:54.573Z,72.87
2019-03-08T20:40:27.012Z,72.91
2019-03-08T20:42:59.993Z,72.81
2019-03-08T20:45:36.016Z,72.63
2019-03-08T20:48:08.749Z,72.57
2019-03-08T20:50:40.641Z,72.61
2019-03-08T20:53:12.413Z,72.53
2019-03-08T20:55:44.474Z,72.47
2019-03-08T20:58:18.801Z,72.66
2019-03-08T21:00:55.522Z,73.04
2019-03-08T21:03:34.432Z,73.40
2019-03-08T21:06:07.903Z,73.43
2019-03-08T21:08:49.280Z,73.80
2019-03-08T21:11:21.674Z,74.24
2019-03-08T21:13:53.413Z,74.93
2019-03-08T21:16:29.470Z,75.24
2019-03-08T21:19:02.544Z,75.58
2019-03-08T21:21:34.012Z,75.92
2019-03-08T21:24:12.933Z,75.99
2019-03-08T21:26:46.099Z,75.98
2019-03-08T21:29:17.418Z,76.40
2019-03-08T21:31:48.700Z,76.84
2019-03-08T21:34:19.578Z,76.92
2019-03-08T21:36:50.618Z,77.24
2019-03-08T21:39:23.234Z,77.60
2019-03-08T21:41:55.002Z,77.93
2019-03-08T21:44:26.076Z,78.22
2019-03-08T21:46:58.687Z,78.33
2019-03-08T21:49:29.904Z,78.79
2019-03-08T21:52:01.398Z,78.82
2019-03-08T21:54:32.471Z,78.97
2019-03-08T21:57:03.763Z,78.79
2019-03-08T21:59:35.189Z,78.76
2019-03-08T22:02:05.962Z,78.77
2019-03-08T22:04:38.180Z,78.74
2019-03-08T22:07:09.546Z,78.85
2019-03-08T22:09:42.210Z,78.89
2019-03-08T22:12:13.011Z,78.79
2019-03-08T22:14:44.049Z,78.81
2019-03-08T22:17:14.948Z,78.59
2019-03-08T22:19:46.592Z,78.53
2019-03-08T22:22:17.741Z,78.29
2019-03-08T22:24:48.901Z,78.27
2019-03-08T22:27:19.611Z,78.22
2019-03-08T22:29:50.605Z,78.17
2019-03-08T22:32:21.618Z,77.85
2019-03-08T22:34:52.751Z,77.49
2019-03-08T22:37:23.661Z,77.36
2019-03-08T22:39:54.707Z,77.29
2019-03-08T22:42:26.250Z,77.13
2019-03-08T22:44:56.914Z,77.03
2019-03-08T22:47:28.543Z,77.06
2019-03-08T22:49:59.628Z,77.05
2019-03-08T22:52:30.471Z,77.11
2019-03-08T22:55:01.512Z,76.70
2019-03-08T22:57:32.321Z,76.71
2019-03-08T23:00:03.687Z,76.76
2019-03-08T23:02:36.503Z,76.57
2019-03-08T23:05:07.637Z,76.78
2019-03-08T23:07:38.646Z,76.99
2019-03-08T23:10:11.640Z,77.16
2019-03-08T23:12:42.866Z,77.50
2019-03-08T23:15:13.918Z,77.63
2019-03-08T23:17:45.442Z,77.58
2019-03-08T23:20:16.891Z,77.75
2019-03-08T23:22:47.642Z,77.79
2019-03-08T23:25:19.546Z,77.69
2019-03-08T23:27:52.588Z,77.90
2019-03-08T23:30:25.714Z,77.93
2019-03-08T23:32:57.227Z,77.96
2019-03-08T23:35:29.058Z,78.22
2019-03-08T23:38:00.299Z,78.25
2019-03-08T23:40:31.437Z,78.69
2019-03-08T23:43:02.339Z,78.77
2019-03-08T23:45:33.359Z,79.06
2019-03-08T23:48:04.436Z,78.99
2019-03-08T23:50:35.510Z,79.29
2019-03-08T23:53:06.668Z,79.41
2019-03-08T23:55:37.224Z,79.34
2019-03-08T23:58:08.307Z,79.75
